createdAt,value
2018-02-24T00:01:48.681Z,37.83
2018-02-24T00:04:19.399Z,37.70
2018-02-24T00:06:49.675Z,37.28
2018-02-24T00:09:19.760Z,37.25
2018-02-24T00:11:50.103Z,38.05
2018-02-24T00:14:21.474Z,35.95
2018-02-24T00:16:52.782Z,37.47
2018-02-24T00:19:22.969Z,39.53
2018-02-24T00:21:53.587Z,38.55
2018-02-24T00:24:24.541Z,37.45
2018-02-24T00:26:55.841Z,39.03
2018-02-24T00:29:26.843Z,36.20
2018-02-24T00:31:57.645Z,38.63
2018-02-24T00:34:28.644Z,36.83
2018-02-24T00:36:59.595Z,37.40
2018-02-24T00:39:30.026Z,40.20
2018-02-24T00:42:01.262Z,36.20
2018-02-24T00:44:32.710Z,36.63
2018-02-24T00:47:02.998Z,37.45
2018-02-24T00:49:34.290Z,38.70
2018-02-24T00:52:04.890Z,37.05
2018-02-24T00:54:35.950Z,35.30
2018-02-24T00:57:07.556Z,37.05
2018-02-24T00:59:38.843Z,37.83
2018-02-24T01:02:09.979Z,34.97
2018-02-24T01:04:40.988Z,35.60
2018-02-24T01:07:11.104Z,36.80
2018-02-24T01:09:42.732Z,37.23
2018-02-24T01:12:13.294Z,36.65
2018-02-24T01:14:44.913Z,34.50
2018-02-24T01:17:15.073Z,35.20
2018-02-24T01:19:45.686Z,35.13
2018-02-24T01:22:15.902Z,37.23
2018-02-24T01:24:46.808Z,35.70
2018-02-24T01:27:17.470Z,37.65
2018-02-24T01:29:48.456Z,39.27
2018-02-24T01:32:18.694Z,36.83
2018-02-24T01:34:48.894Z,37.10
2018-02-24T01:37:19.803Z,36.08
2018-02-24T01:39:59.095Z,40.90
2018-02-24T01:42:33.528Z,38.00
2018-02-24T01:46:28.294Z,40.43
2018-02-24T01:48:59.342Z,39.47
2018-02-24T01:53:18.766Z,39.42
2018-02-24T01:55:49.258Z,38.03
2018-02-24T01:58:20.164Z,37.42
2018-02-24T02:00:51.783Z,38.03
2018-02-24T02:03:23.430Z,39.47
2018-02-24T02:05:54.436Z,38.05
2018-02-24T02:08:24.936Z,39.08
2018-02-24T02:10:56.123Z,40.63
2018-02-24T02:13:26.252Z,39.08
2018-02-24T02:15:57.150Z,41.72
2018-02-24T02:18:27.271Z,38.22
2018-02-24T02:20:57.368Z,40.17
2018-02-24T02:23:28.622Z,41.65
2018-02-24T02:25:59.466Z,39.53
2018-02-24T02:28:30.293Z,40.50
2018-02-24T02:31:01.247Z,41.60
2018-02-24T02:33:32.176Z,38.60
2018-02-24T02:36:02.256Z,39.67
2018-02-24T02:38:32.580Z,41.03
2018-02-24T02:41:02.698Z,41.23
2018-02-24T02:43:33.048Z,40.20
2018-02-24T02:46:03.709Z,40.73
2018-02-24T02:48:34.263Z,41.85
2018-02-24T02:51:05.158Z,40.72
2018-02-24T02:53:35.771Z,42.47
2018-02-24T02:56:07.218Z,42.80
2018-02-24T02:58:38.204Z,41.97
2018-02-24T03:01:09.324Z,41.60
2018-02-24T03:03:40.868Z,42.13
2018-02-24T03:06:11.604Z,41.67
2018-02-24T03:08:42.350Z,40.47
2018-02-24T03:11:13.559Z,41.63
2018-02-24T03:13:43.902Z,38.88
2018-02-24T03:16:14.573Z,41.13
2018-02-24T03:18:45.249Z,41.43
2018-02-24T03:21:16.080Z,40.83
2018-02-24T03:23:46.506Z,38.22
2018-02-24T03:26:18.019Z,38.95
2018-02-24T03:28:49.016Z,40.70
2018-02-24T03:31:19.946Z,40.22
2018-02-24T03:33:50.960Z,41.47
2018-02-24T03:36:21.511Z,40.60
2018-02-24T03:38:51.804Z,43.13
2018-02-24T03:41:22.105Z,40.85
2018-02-24T03:43:54.435Z,41.83
2018-02-24T03:46:25.249Z,41.72
2018-02-24T03:48:55.421Z,43.40
2018-02-24T03:51:25.904Z,40.60
2018-02-24T03:53:56.540Z,39.70
2018-02-24T03:56:26.666Z,39.50
2018-02-24T03:58:57.602Z,39.03
2018-02-24T04:01:28.717Z,41.22
2018-02-24T04:03:59.029Z,39.85
2018-02-24T04:06:29.467Z,40.17
2018-02-24T04:09:00.638Z,39.30
2018-02-24T04:11:32.637Z,39.78
2018-02-24T04:14:03.287Z,40.53
2018-02-24T04:16:34.644Z,38.67
2018-02-24T04:19:05.522Z,38.35
2018-02-24T04:21:35.810Z,38.03
2018-02-24T04:24:07.218Z,38.70
2018-02-24T04:26:38.558Z,40.78
2018-02-24T04:29:09.608Z,39.45
2018-02-24T04:31:40.154Z,39.47
2018-02-24T04:34:11.475Z,38.10
2018-02-24T04:36:42.330Z,37.67
2018-02-24T04:39:12.994Z,37.85
2018-02-24T04:41:44.093Z,38.40
2018-02-24T04:44:14.858Z,39.08
2018-02-24T04:46:46.041Z,37.92
2018-02-24T04:49:18.469Z,39.60
2018-02-24T04:51:49.791Z,40.10
2018-02-24T04:54:20.560Z,37.55
2018-02-24T04:56:51.241Z,40.60
2018-02-24T04:59:22.229Z,41.25
2018-02-24T05:01:52.654Z,38.20
2018-02-24T05:04:23.982Z,37.47
2018-02-24T05:06:55.673Z,38.17
2018-02-24T05:09:25.886Z,39.50
2018-02-24T05:11:57.636Z,38.80
2018-02-24T05:14:31.407Z,38.20
2018-02-24T05:17:01.873Z,34.45
2018-02-24T05:19:32.630Z,37.63
2018-02-24T05:22:03.742Z,39.35
2018-02-24T05:24:34.632Z,36.80
2018-02-24T05:27:05.426Z,39.13
2018-02-24T05:29:36.198Z,38.37
2018-02-24T05:32:06.638Z,37.63
2018-02-24T05:34:37.650Z,36.78
2018-02-24T05:37:08.174Z,36.53
2018-02-24T05:39:38.741Z,37.85
2018-02-24T05:42:10.719Z,35.75
2018-02-24T05:44:42.957Z,38.95
2018-02-24T05:47:13.646Z,36.25
2018-02-24T05:49:44.966Z,38.87
2018-02-24T05:52:15.479Z,37.07
2018-02-24T05:54:47.846Z,39.70
2018-02-24T05:57:18.918Z,37.42
2018-02-24T05:59:53.378Z,39.17
2018-02-24T06:02:23.906Z,38.47
2018-02-24T06:04:54.774Z,37.05
2018-02-24T06:07:26.052Z,36.67
2018-02-24T06:09:56.843Z,35.67
2018-02-24T06:12:27.388Z,35.88
2018-02-24T06:15:04.205Z,32.72
2018-02-24T06:17:45.966Z,35.63
2018-02-24T06:20:16.935Z,34.75
2018-02-24T06:22:48.633Z,37.08
2018-02-24T06:25:19.480Z,36.25
2018-02-24T06:27:50.405Z,34.47
2018-02-24T06:30:21.519Z,34.93
2018-02-24T06:32:52.513Z,33.97
2018-02-24T06:35:23.025Z,31.75
2018-02-24T06:37:56.017Z,34.47
2018-02-24T06:40:28.995Z,35.30
2018-02-24T06:42:59.494Z,34.47
2018-02-24T06:45:31.034Z,33.55
2018-02-24T06:48:02.063Z,33.38
2018-02-24T06:50:32.360Z,32.65
2018-02-24T06:53:03.466Z,34.70
2018-02-24T06:55:34.358Z,34.30
2018-02-24T06:58:06.547Z,33.78
2018-02-24T07:00:39.294Z,33.47
2018-02-24T07:03:10.660Z,33.90
2018-02-24T07:05:42.636Z,36.03
2018-02-24T07:08:13.399Z,33.07
2018-02-24T07:10:44.373Z,35.13
2018-02-24T07:13:19.250Z,37.00
2018-02-24T07:16:01.346Z,36.20
2018-02-24T07:18:32.032Z,35.92
2018-02-24T07:21:03.092Z,36.03
2018-02-24T07:23:34.098Z,34.20
2018-02-24T07:26:05.094Z,31.50
2018-02-24T07:28:35.301Z,35.08
2018-02-24T07:31:08.686Z,33.95
2018-02-24T07:33:40.654Z,34.20
2018-02-24T07:36:11.118Z,34.53
2018-02-24T07:38:46.140Z,37.08
2018-02-24T07:41:18.307Z,33.85
2018-02-24T07:43:48.834Z,33.57
2018-02-24T07:46:28.497Z,33.95
2018-02-24T07:48:59.193Z,37.63
2018-02-24T07:51:30.170Z,34.27
2018-02-24T07:54:00.390Z,35.70
2018-02-24T07:56:31.352Z,37.60
2018-02-24T07:59:03.260Z,34.80
2018-02-24T08:01:35.310Z,33.22
2018-02-24T08:04:06.189Z,33.53
2018-02-24T08:06:36.571Z,33.07
2018-02-24T08:09:07.436Z,33.37
2018-02-24T08:11:38.408Z,33.83
2018-02-24T08:18:20.951Z,35.90
2018-02-24T08:20:52.747Z,34.60
2018-02-24T08:23:27.507Z,32.92
2018-02-24T08:25:58.176Z,35.30
2018-02-24T08:28:29.292Z,34.08
2018-02-24T08:31:00.445Z,35.40
2018-02-24T08:33:32.611Z,35.03
2018-02-24T08:43:13.362Z,33.60
2018-02-24T08:45:43.647Z,29.58
2018-02-24T08:48:14.770Z,31.48
2018-02-24T08:50:46.193Z,32.42
2018-02-24T08:53:18.641Z,33.10
2018-02-24T08:55:49.741Z,32.22
2018-02-24T08:58:54.919Z,31.75
2018-02-24T09:01:38.157Z,32.08
2018-02-24T09:04:09.740Z,34.28
2018-02-24T09:06:40.731Z,30.55
2018-02-24T09:09:11.479Z,31.73
2018-02-24T09:11:43.124Z,31.52
2018-02-24T09:14:47.014Z,34.67
2018-02-24T09:17:18.218Z,31.20
2018-02-24T09:19:50.090Z,31.50
2018-02-24T09:22:21.633Z,32.72
2018-02-24T09:24:52.884Z,32.97
2018-02-24T09:27:24.845Z,31.03
2018-02-24T09:29:55.714Z,34.47
2018-02-24T09:32:26.750Z,31.70
2018-02-24T09:35:02.151Z,33.88
2018-02-24T09:37:39.786Z,31.50
2018-02-24T09:40:14.815Z,32.78
2018-02-24T09:42:48.002Z,32.17
2018-02-24T09:45:22.174Z,31.80
2018-02-24T09:48:03.105Z,31.25
2018-02-24T09:50:37.388Z,30.77
2018-02-24T09:53:11.201Z,32.45
2018-02-24T09:55:46.371Z,32.13
2018-02-24T09:58:18.834Z,32.40
2018-02-24T10:00:53.456Z,28.90
2018-02-24T10:03:26.216Z,30.17
2018-02-24T10:06:08.060Z,31.17
2018-02-24T10:08:46.013Z,32.40
2018-02-24T10:11:23.866Z,31.40
2018-02-24T10:14:02.538Z,33.30
2018-02-24T10:16:39.645Z,31.98
2018-02-24T10:19:21.554Z,31.43
2018-02-24T10:21:54.110Z,30.95
2018-02-24T10:24:27.401Z,30.58
2018-02-24T10:29:57.607Z,29.98
2018-02-24T10:32:28.553Z,31.17
2018-02-24T10:35:03.597Z,32.20
2018-02-24T10:37:38.409Z,33.30
2018-02-24T10:47:20.435Z,30.88
2018-02-24T10:49:51.097Z,31.43
2018-02-24T10:52:22.285Z,33.90
2018-02-24T10:54:54.350Z,33.28
2018-02-24T10:57:29.960Z,34.58
2018-02-24T11:00:07.843Z,33.25
2018-02-24T11:05:48.229Z,31.92
2018-02-24T11:08:21.814Z,32.33
2018-02-24T11:10:55.104Z,33.08
2018-02-24T11:16:23.816Z,27.73
2018-02-24T11:19:04.977Z,28.90
2018-02-24T11:21:40.863Z,29.98
2018-02-24T11:24:16.956Z,30.50
2018-02-24T11:26:52.700Z,30.35
2018-02-24T11:29:25.423Z,30.55
2018-02-24T11:31:57.427Z,31.42
2018-02-24T11:34:35.737Z,32.65
2018-02-24T11:37:12.295Z,31.77
2018-02-24T11:39:45.296Z,29.23
2018-02-24T11:42:19.054Z,31.05
2018-02-24T11:44:52.331Z,30.08
2018-02-24T11:47:35.234Z,30.50
2018-02-24T11:50:08.770Z,29.00
2018-02-24T11:52:41.434Z,29.80
2018-02-24T11:55:31.919Z,29.30
2018-02-24T11:58:14.508Z,30.95
2018-02-24T12:00:47.711Z,31.23
2018-02-24T12:06:54.874Z,29.05
2018-02-24T12:09:25.798Z,29.45
2018-02-24T12:12:01.984Z,28.67
2018-02-24T12:14:33.581Z,31.33
2018-02-24T12:17:06.346Z,31.90
2018-02-24T12:19:38.119Z,28.38
2018-02-24T12:22:10.637Z,31.33
2018-02-24T12:24:49.699Z,30.67
2018-02-24T12:27:20.962Z,30.20
2018-02-24T12:29:52.272Z,29.73
2018-02-24T12:32:22.561Z,28.02
2018-02-24T12:34:55.257Z,30.45
2018-02-24T12:37:32.533Z,29.90
2018-02-24T12:40:26.357Z,27.23
2018-02-24T12:43:07.396Z,29.95
2018-02-24T12:45:43.577Z,28.55
2018-02-24T12:48:22.514Z,28.80
2018-02-24T12:51:27.016Z,28.70
2018-02-24T12:54:14.076Z,28.98
2018-02-24T12:56:46.862Z,29.73
2018-02-24T12:59:19.494Z,29.17
2018-02-24T13:02:04.102Z,30.53
2018-02-24T13:04:37.431Z,30.80
2018-02-24T13:07:17.489Z,29.75
2018-02-24T13:09:50.737Z,27.65
2018-02-24T13:12:59.858Z,27.17
2018-02-24T13:15:36.249Z,27.23
2018-02-24T13:18:09.866Z,25.20
2018-02-24T13:20:51.327Z,27.08
2018-02-24T13:24:47.132Z,27.42
2018-02-24T13:27:21.748Z,27.73
2018-02-24T13:30:01.903Z,28.37
2018-02-24T13:33:33.697Z,25.90
2018-02-24T13:36:07.594Z,26.83
2018-02-24T13:38:40.320Z,27.93
2018-02-24T13:41:24.333Z,26.58
2018-02-24T13:44:03.537Z,27.27
2018-02-24T13:46:41.461Z,27.37
2018-02-24T13:49:14.998Z,26.57
2018-02-24T13:51:48.146Z,26.70
2018-02-24T13:54:21.756Z,25.10
2018-02-24T13:56:54.619Z,25.17
2018-02-24T13:59:33.715Z,25.65
2018-02-24T14:02:14.696Z,27.13
2018-02-24T14:04:49.641Z,25.75
2018-02-24T14:07:28.907Z,24.05
2018-02-24T14:12:48.915Z,23.55
2018-02-24T14:15:20.062Z,25.27
2018-02-24T14:17:52.628Z,24.10
2018-02-24T14:20:24.095Z,23.00
2018-02-24T14:22:55.185Z,23.85
2018-02-24T14:25:26.708Z,22.15
2018-02-24T14:27:59.902Z,21.10
2018-02-24T14:30:30.729Z,21.58
2018-02-24T14:35:46.337Z,22.90
2018-02-24T14:38:19.535Z,22.40
2018-02-24T14:40:50.140Z,21.90
2018-02-24T14:43:21.184Z,20.85
2018-02-24T14:45:51.916Z,19.87
2018-02-24T14:48:24.567Z,19.55
2018-02-24T14:50:56.143Z,20.60
2018-02-24T14:53:27.289Z,19.13
2018-02-24T14:55:59.650Z,18.58
2018-02-24T15:02:24.004Z,16.23
2018-02-24T15:04:55.585Z,16.60
2018-02-24T15:07:26.417Z,16.45
2018-02-24T15:09:56.966Z,18.00
2018-02-24T15:12:29.637Z,17.45
2018-02-24T15:15:03.382Z,17.67
2018-02-24T15:17:34.503Z,16.35
2018-02-24T15:21:42.019Z,14.25
2018-02-24T15:24:13.556Z,15.10
2018-02-24T15:27:04.599Z,14.75
2018-02-24T15:29:37.075Z,15.52
2018-02-24T15:32:11.506Z,13.40
2018-02-24T15:34:41.665Z,15.82
2018-02-24T15:37:12.227Z,15.13
2018-02-24T15:39:43.753Z,13.52
2018-02-24T15:42:14.988Z,13.93
2018-02-24T15:44:45.765Z,14.90
2018-02-24T15:47:16.542Z,14.10
2018-02-24T15:49:47.380Z,14.60
2018-02-24T15:52:18.288Z,13.65
2018-02-24T15:54:50.661Z,14.55
2018-02-24T15:57:25.079Z,13.80
2018-02-24T16:00:07.034Z,13.30
2018-02-24T16:02:38.604Z,14.20
2018-02-24T16:05:12.099Z,13.65
2018-02-24T16:08:07.344Z,12.00
2018-02-24T16:10:38.176Z,14.57
2018-02-24T16:13:09.606Z,14.38
2018-02-24T16:15:40.536Z,12.70
2018-02-24T16:18:19.137Z,14.40
2018-02-24T16:20:54.135Z,10.90
2018-02-24T16:23:25.823Z,11.93
2018-02-24T16:29:13.001Z,13.07
2018-02-24T16:31:48.666Z,13.30
2018-02-24T16:34:20.971Z,10.90
2018-02-24T16:36:58.806Z,12.17
2018-02-24T16:39:39.869Z,12.45
2018-02-24T16:42:23.177Z,11.20
2018-02-24T16:44:53.567Z,12.30
2018-02-24T16:47:24.956Z,12.55
2018-02-24T16:49:57.352Z,11.32
2018-02-24T16:52:27.950Z,11.43
2018-02-24T16:54:58.905Z,12.77
2018-02-24T16:57:29.761Z,12.87
2018-02-24T17:00:01.137Z,13.80
2018-02-24T17:02:31.853Z,13.40
2018-02-24T17:05:13.027Z,13.10
2018-02-24T17:07:44.644Z,14.43
2018-02-24T17:13:02.935Z,14.63
2018-02-24T17:15:35.334Z,14.10
2018-02-24T17:18:08.023Z,14.38
2018-02-24T17:20:42.481Z,14.50
2018-02-24T17:23:23.028Z,15.77
2018-02-24T17:26:27.604Z,13.90
2018-02-24T17:29:03.370Z,16.63
2018-02-24T17:31:44.258Z,15.45
2018-02-24T17:34:22.367Z,16.45
2018-02-24T17:37:05.057Z,16.50
2018-02-24T17:39:42.753Z,16.73
2018-02-24T17:42:22.012Z,16.45
2018-02-24T17:44:58.264Z,17.30
2018-02-24T17:50:17.738Z,17.90
2018-02-24T17:53:21.154Z,17.08
2018-02-24T17:55:59.778Z,18.37
2018-02-24T17:58:32.527Z,17.05
2018-02-24T18:01:04.005Z,17.00
2018-02-24T18:03:42.059Z,16.52
2018-02-24T18:06:17.478Z,17.23
2018-02-24T18:09:00.846Z,17.62
2018-02-24T18:11:34.108Z,18.17
2018-02-24T18:14:05.721Z,17.15
2018-02-24T18:16:36.590Z,17.80
2018-02-24T18:19:29.696Z,18.48
2018-02-24T18:22:01.352Z,17.73
2018-02-24T18:24:32.399Z,18.48
2018-02-24T18:27:03.435Z,17.40
2018-02-24T18:29:53.503Z,17.02
2018-02-24T18:32:26.255Z,18.30
2018-02-24T18:34:56.701Z,17.63
2018-02-24T18:37:28.901Z,16.48
2018-02-24T18:40:01.005Z,16.60
2018-02-24T18:42:31.204Z,16.40
2018-02-24T18:45:03.182Z,17.65
2018-02-24T18:47:37.859Z,16.83
2018-02-24T18:50:10.359Z,17.65
2018-02-24T18:56:19.120Z,17.17
2018-02-24T18:58:51.358Z,16.10
2018-02-24T19:01:23.963Z,16.55
2018-02-24T19:03:55.227Z,17.52
2018-02-24T19:06:27.984Z,16.58
2018-02-24T19:08:59.521Z,15.57
2018-02-24T19:11:30.840Z,17.57
2018-02-24T19:14:06.615Z,15.23
2018-02-24T19:16:38.247Z,16.02
2018-02-24T19:20:34.943Z,14.63
2018-02-24T19:23:07.357Z,13.70
2018-02-24T19:25:41.560Z,14.50
2018-02-24T19:28:13.797Z,14.02
2018-02-24T19:30:44.165Z,15.50
2018-02-24T19:33:15.019Z,15.63
2018-02-24T19:35:46.121Z,14.17
2018-02-24T19:38:19.846Z,15.00
2018-02-24T19:40:51.914Z,13.13
2018-02-24T19:43:25.423Z,12.40
2018-02-24T19:46:04.929Z,14.05
2018-02-24T19:48:35.848Z,13.50
2018-02-24T19:51:09.128Z,14.93
2018-02-24T19:53:40.108Z,13.70
2018-02-24T19:56:13.537Z,14.70
2018-02-24T19:58:47.097Z,14.32
2018-02-24T20:01:19.928Z,14.80
2018-02-24T20:03:50.501Z,15.00
2018-02-24T20:06:21.518Z,14.80
2018-02-24T20:08:51.899Z,14.77
2018-02-24T20:11:22.697Z,14.85
2018-02-24T20:13:57.866Z,13.27
2018-02-24T20:16:31.407Z,15.18
2018-02-24T20:19:02.483Z,14.98
2018-02-24T20:21:33.082Z,15.13
2018-02-24T20:24:04.352Z,14.93
2018-02-24T20:26:35.212Z,13.40
2018-02-24T20:29:06.431Z,14.87
2018-02-24T20:31:38.460Z,15.27
2018-02-24T20:34:09.501Z,14.07
2018-02-24T20:36:40.065Z,14.32
2018-02-24T20:39:11.293Z,14.10
2018-02-24T20:41:45.690Z,14.45
2018-02-24T20:44:17.018Z,14.82
2018-02-24T20:46:48.276Z,13.93
2018-02-24T20:49:18.654Z,14.33
2018-02-24T20:51:49.662Z,16.03
2018-02-24T20:54:19.915Z,14.23
2018-02-24T20:56:50.944Z,13.80
2018-02-24T20:59:22.648Z,14.27
2018-02-24T21:01:52.896Z,12.85
2018-02-24T21:04:23.989Z,13.20
2018-02-24T21:06:55.001Z,12.95
2018-02-24T21:09:25.853Z,13.10
2018-02-24T21:11:56.673Z,11.37
2018-02-24T21:14:50.982Z,12.05
2018-02-24T21:17:27.093Z,10.77
2018-02-24T21:20:02.690Z,11.38
2018-02-24T21:30:33.110Z,11.60
2018-02-24T21:33:05.928Z,8.30
2018-02-24T21:35:36.949Z,9.67
2018-02-24T21:38:08.391Z,10.30
2018-02-24T21:40:41.395Z,8.47
2018-02-24T21:43:12.593Z,9.25
2018-02-24T21:45:43.818Z,10.10
2018-02-24T21:48:14.305Z,8.35
2018-02-24T21:50:46.598Z,8.60
2018-02-24T21:53:17.930Z,8.67
2018-02-24T21:55:53.113Z,8.40
2018-02-24T21:58:27.822Z,9.30
2018-02-24T22:00:59.312Z,8.33
2018-02-24T22:03:32.468Z,8.70
2018-02-24T22:06:04.186Z,7.90
2018-02-24T22:08:42.637Z,8.93
2018-02-24T22:11:14.337Z,8.00
2018-02-24T22:13:44.907Z,8.40
2018-02-24T22:16:18.746Z,8.38
2018-02-24T22:18:50.601Z,8.07
2018-02-24T22:21:21.823Z,8.80
2018-02-24T22:23:53.288Z,8.05
2018-02-24T22:26:23.928Z,8.45
2018-02-24T22:28:54.567Z,8.23
2018-02-24T22:31:25.773Z,8.80
2018-02-24T22:33:56.111Z,8.68
2018-02-24T22:36:29.102Z,8.40
2018-02-24T22:39:00.212Z,7.87
2018-02-24T22:41:32.065Z,8.70
2018-02-24T22:44:03.442Z,8.18
2018-02-24T22:46:34.403Z,8.70
2018-02-24T22:49:05.124Z,8.73
2018-02-24T22:51:48.851Z,8.05
2018-02-24T22:54:22.755Z,8.60
2018-02-24T22:56:54.125Z,8.52
2018-02-24T22:59:25.228Z,9.45
2018-02-24T23:01:56.617Z,9.18
2018-02-24T23:04:27.041Z,8.50
2018-02-24T23:06:58.323Z,9.17
2018-02-24T23:09:28.910Z,9.13
2018-02-24T23:11:59.460Z,8.65
2018-02-24T23:14:30.520Z,8.75
2018-02-24T23:17:01.388Z,9.43
2018-02-24T23:19:31.946Z,10.07
2018-02-24T23:22:02.560Z,9.30
2018-02-24T23:24:35.525Z,8.83
2018-02-24T23:27:09.837Z,8.63
2018-02-24T23:29:43.143Z,8.47
2018-02-24T23:32:15.093Z,9.27
2018-02-24T23:34:47.042Z,8.50
2018-02-24T23:37:18.349Z,8.93
2018-02-24T23:39:48.810Z,8.60
2018-02-24T23:42:19.345Z,7.85
2018-02-24T23:44:50.534Z,9.00
2018-02-24T23:47:21.425Z,9.90
2018-02-24T23:49:51.683Z,8.55
2018-02-24T23:52:22.097Z,9.38
2018-02-24T23:54:53.159Z,9.52
2018-02-24T23:57:23.680Z,8.38
2018-02-24T23:59:55.105Z,9.07
